sensor_id;sensor_type;location;lat;lon;timestamp;P1;durP1;ratioP1;P2;durP2;ratioP2
25509;SDS011;13413;52.336;21.200;2023-05-20T00:01:37;11.40;;;7.10;;
25509;SDS011;13413;52.336;21.200;2023-05-20T00:04:31;10.60;;;7.60;;
25509;SDS011;13413;52.336;21.200;2023-05-20T00:07:25;11.50;;;7.20;;
25509;SDS011;13413;52.336;21.200;2023-05-20T00:10:19;10.20;;;7.50;;
25509;SDS011;13413;52.336;21.200;2023-05-20T00:13:13;12.90;;;7.60;;
25509;SDS011;13413;52.336;21.200;2023-05-20T00:16:07;9.90;;;7.80;;
25509;SDS011;13413;52.336;21.200;2023-05-20T00:19:01;12.20;;;9.00;;
25509;SDS011;13413;52.336;21.200;2023-05-20T00:21:56;12.70;;;8.00;;
25509;SDS011;13413;52.336;21.200;2023-05-20T00:27:42;11.90;;;8.20;;
25509;SDS011;13413;52.336;21.200;2023-05-20T00:30:37;10.00;;;7.60;;
25509;SDS011;13413;52.336;21.200;2023-05-20T00:33:32;13.40;;;6.90;;
25509;SDS011;13413;52.336;21.200;2023-05-20T00:36:26;11.30;;;7.20;;
25509;SDS011;13413;52.336;21.200;2023-05-20T00:39:20;11.00;;;8.50;;
25509;SDS011;13413;52.336;21.200;2023-05-20T00:42:20;10.40;;;7.20;;
25509;SDS011;13413;52.336;21.200;2023-05-20T00:45:15;9.20;;;7.60;;
25509;SDS011;13413;52.336;21.200;2023-05-20T00:48:09;14.80;;;8.90;;
25509;SDS011;13413;52.336;21.200;2023-05-20T00:51:04;11.20;;;7.90;;
25509;SDS011;13413;52.336;21.200;2023-05-20T00:53:58;13.40;;;9.30;;
25509;SDS011;13413;52.336;21.200;2023-05-20T00:56:52;16.20;;;10.80;;
25509;SDS011;13413;52.336;21.200;2023-05-20T00:59:46;10.20;;;7.00;;
25509;SDS011;13413;52.336;21.200;2023-05-20T01:02:40;16.70;;;10.90;;
25509;SDS011;13413;52.336;21.200;2023-05-20T01:05:34;10.50;;;7.90;;
25509;SDS011;13413;52.336;21.200;2023-05-20T01:11:36;15.00;;;7.80;;
25509;SDS011;13413;52.336;21.200;2023-05-20T01:14:36;14.50;;;8.10;;
25509;SDS011;13413;52.336;21.200;2023-05-20T01:17:35;17.60;;;12.90;;
25509;SDS011;13413;52.336;21.200;2023-05-20T01:20:31;11.90;;;8.10;;
25509;SDS011;13413;52.336;21.200;2023-05-20T01:26:33;13.70;;;6.50;;
25509;SDS011;13413;52.336;21.200;2023-05-20T01:29:27;12.60;;;8.80;;
25509;SDS011;13413;52.336;21.200;2023-05-20T01:32:22;12.10;;;8.50;;
25509;SDS011;13413;52.336;21.200;2023-05-20T01:35:18;24.30;;;7.80;;
25509;SDS011;13413;52.336;21.200;2023-05-20T01:44:12;11.70;;;6.10;;
25509;SDS011;13413;52.336;21.200;2023-05-20T01:50:00;10.40;;;7.10;;
25509;SDS011;13413;52.336;21.200;2023-05-20T01:52:54;12.70;;;8.20;;
25509;SDS011;13413;52.336;21.200;2023-05-20T01:55:48;15.10;;;8.10;;
25509;SDS011;13413;52.336;21.200;2023-05-20T01:58:42;11.60;;;8.90;;
25509;SDS011;13413;52.336;21.200;2023-05-20T02:01:38;17.80;;;11.10;;
25509;SDS011;13413;52.336;21.200;2023-05-20T02:04:32;10.60;;;8.00;;
25509;SDS011;13413;52.336;21.200;2023-05-20T02:07:26;15.00;;;10.90;;
25509;SDS011;13413;52.336;21.200;2023-05-20T02:10:20;11.70;;;8.90;;
25509;SDS011;13413;52.336;21.200;2023-05-20T02:13:14;14.50;;;8.40;;
25509;SDS011;13413;52.336;21.200;2023-05-20T02:16:08;14.00;;;9.10;;
25509;SDS011;13413;52.336;21.200;2023-05-20T02:19:02;10.20;;;7.20;;
25509;SDS011;13413;52.336;21.200;2023-05-20T02:21:56;14.80;;;7.90;;
25509;SDS011;13413;52.336;21.200;2023-05-20T02:24:50;11.80;;;9.00;;
25509;SDS011;13413;52.336;21.200;2023-05-20T02:27:44;8.60;;;6.10;;
25509;SDS011;13413;52.336;21.200;2023-05-20T02:30:38;12.80;;;8.90;;
25509;SDS011;13413;52.336;21.200;2023-05-20T02:33:32;12.00;;;8.20;;
25509;SDS011;13413;52.336;21.200;2023-05-20T02:36:26;9.30;;;6.70;;
25509;SDS011;13413;52.336;21.200;2023-05-20T02:39:20;9.90;;;6.80;;
25509;SDS011;13413;52.336;21.200;2023-05-20T02:42:14;11.00;;;7.20;;
25509;SDS011;13413;52.336;21.200;2023-05-20T02:45:09;12.80;;;7.00;;
25509;SDS011;13413;52.336;21.200;2023-05-20T02:48:03;10.90;;;7.90;;
25509;SDS011;13413;52.336;21.200;2023-05-20T02:50:59;10.40;;;7.40;;
25509;SDS011;13413;52.336;21.200;2023-05-20T02:53:52;10.30;;;6.80;;
25509;SDS011;13413;52.336;21.200;2023-05-20T02:56:48;12.00;;;6.60;;
25509;SDS011;13413;52.336;21.200;2023-05-20T02:59:42;11.40;;;6.40;;
25509;SDS011;13413;52.336;21.200;2023-05-20T03:02:36;8.00;;;6.30;;
25509;SDS011;13413;52.336;21.200;2023-05-20T03:05:30;9.20;;;6.70;;
25509;SDS011;13413;52.336;21.200;2023-05-20T03:08:24;10.10;;;6.30;;
25509;SDS011;13413;52.336;21.200;2023-05-20T03:11:18;9.70;;;7.00;;
25509;SDS011;13413;52.336;21.200;2023-05-20T03:14:12;8.00;;;6.40;;
25509;SDS011;13413;52.336;21.200;2023-05-20T03:17:07;7.90;;;6.30;;
25509;SDS011;13413;52.336;21.200;2023-05-20T03:20:01;9.50;;;5.70;;
25509;SDS011;13413;52.336;21.200;2023-05-20T03:22:55;11.60;;;6.40;;
25509;SDS011;13413;52.336;21.200;2023-05-20T03:25:50;9.60;;;6.40;;
25509;SDS011;13413;52.336;21.200;2023-05-20T03:28:57;11.80;;;6.40;;
25509;SDS011;13413;52.336;21.200;2023-05-20T03:31:51;12.00;;;7.40;;
25509;SDS011;13413;52.336;21.200;2023-05-20T03:34:44;8.60;;;7.20;;
25509;SDS011;13413;52.336;21.200;2023-05-20T03:37:38;14.90;;;7.40;;
25509;SDS011;13413;52.336;21.200;2023-05-20T03:40:32;12.70;;;6.50;;
25509;SDS011;13413;52.336;21.200;2023-05-20T03:43:26;13.60;;;6.90;;
25509;SDS011;13413;52.336;21.200;2023-05-20T03:46:20;16.50;;;6.60;;
25509;SDS011;13413;52.336;21.200;2023-05-20T03:49:14;10.70;;;6.30;;
25509;SDS011;13413;52.336;21.200;2023-05-20T03:52:08;8.90;;;4.70;;
25509;SDS011;13413;52.336;21.200;2023-05-20T03:55:02;5.90;;;4.50;;
25509;SDS011;13413;52.336;21.200;2023-05-20T04:04:04;6.90;;;5.50;;
25509;SDS011;13413;52.336;21.200;2023-05-20T04:10:07;12.20;;;6.10;;
25509;SDS011;13413;52.336;21.200;2023-05-20T04:13:01;30.10;;;6.10;;
25509;SDS011;13413;52.336;21.200;2023-05-20T04:15:55;7.70;;;5.00;;
25509;SDS011;13413;52.336;21.200;2023-05-20T04:18:49;10.30;;;5.80;;
25509;SDS011;13413;52.336;21.200;2023-05-20T04:21:43;8.80;;;5.10;;
25509;SDS011;13413;52.336;21.200;2023-05-20T04:24:37;9.90;;;5.80;;
25509;SDS011;13413;52.336;21.200;2023-05-20T04:27:31;7.30;;;5.20;;
25509;SDS011;13413;52.336;21.200;2023-05-20T04:30:25;10.70;;;5.70;;
25509;SDS011;13413;52.336;21.200;2023-05-20T04:33:19;8.60;;;4.80;;
25509;SDS011;13413;52.336;21.200;2023-05-20T04:36:14;11.70;;;6.40;;
25509;SDS011;13413;52.336;21.200;2023-05-20T04:42:00;6.50;;;5.00;;
25509;SDS011;13413;52.336;21.200;2023-05-20T04:44:54;9.50;;;4.90;;
25509;SDS011;13413;52.336;21.200;2023-05-20T04:47:48;13.30;;;5.00;;
25509;SDS011;13413;52.336;21.200;2023-05-20T04:50:42;7.00;;;4.80;;
25509;SDS011;13413;52.336;21.200;2023-05-20T04:53:36;9.90;;;5.00;;
25509;SDS011;13413;52.336;21.200;2023-05-20T04:56:30;8.60;;;5.00;;
25509;SDS011;13413;52.336;21.200;2023-05-20T04:59:24;6.30;;;5.40;;
25509;SDS011;13413;52.336;21.200;2023-05-20T05:02:18;5.10;;;4.50;;
25509;SDS011;13413;52.336;21.200;2023-05-20T05:05:12;6.30;;;5.00;;
25509;SDS011;13413;52.336;21.200;2023-05-20T05:08:13;7.30;;;5.00;;
25509;SDS011;13413;52.336;21.200;2023-05-20T05:11:07;6.20;;;4.90;;
25509;SDS011;13413;52.336;21.200;2023-05-20T05:14:03;6.90;;;5.10;;
25509;SDS011;13413;52.336;21.200;2023-05-20T05:16:57;7.30;;;4.60;;
25509;SDS011;13413;52.336;21.200;2023-05-20T05:19:51;8.30;;;5.20;;
25509;SDS011;13413;52.336;21.200;2023-05-20T05:22:45;12.70;;;7.80;;
25509;SDS011;13413;52.336;21.200;2023-05-20T05:25:39;7.60;;;5.20;;
25509;SDS011;13413;52.336;21.200;2023-05-20T05:28:33;6.20;;;4.60;;
25509;SDS011;13413;52.336;21.200;2023-05-20T05:31:27;8.00;;;4.60;;
25509;SDS011;13413;52.336;21.200;2023-05-20T05:34:21;8.30;;;4.50;;
25509;SDS011;13413;52.336;21.200;2023-05-20T05:37:15;6.30;;;4.80;;
25509;SDS011;13413;52.336;21.200;2023-05-20T05:40:10;7.80;;;4.70;;
25509;SDS011;13413;52.336;21.200;2023-05-20T05:45:56;9.20;;;4.60;;
25509;SDS011;13413;52.336;21.200;2023-05-20T05:48:50;10.40;;;4.60;;
25509;SDS011;13413;52.336;21.200;2023-05-20T05:51:44;13.80;;;4.80;;
25509;SDS011;13413;52.336;21.200;2023-05-20T05:54:38;6.00;;;4.30;;
25509;SDS011;13413;52.336;21.200;2023-05-20T05:57:32;7.00;;;4.80;;
25509;SDS011;13413;52.336;21.200;2023-05-20T06:00:26;9.20;;;5.10;;
25509;SDS011;13413;52.336;21.200;2023-05-20T06:03:20;11.20;;;4.60;;
25509;SDS011;13413;52.336;21.200;2023-05-20T06:06:14;11.80;;;4.00;;
25509;SDS011;13413;52.336;21.200;2023-05-20T06:09:08;6.90;;;4.30;;
25509;SDS011;13413;52.336;21.200;2023-05-20T06:12:02;10.30;;;4.10;;
25509;SDS011;13413;52.336;21.200;2023-05-20T06:23:39;11.40;;;5.10;;
25509;SDS011;13413;52.336;21.200;2023-05-20T06:26:32;8.00;;;4.70;;
25509;SDS011;13413;52.336;21.200;2023-05-20T06:29:27;5.70;;;4.10;;
25509;SDS011;13413;52.336;21.200;2023-05-20T06:32:21;7.20;;;4.50;;
25509;SDS011;13413;52.336;21.200;2023-05-20T06:35:28;7.80;;;3.40;;
25509;SDS011;13413;52.336;21.200;2023-05-20T06:38:22;7.30;;;6.10;;
25509;SDS011;13413;52.336;21.200;2023-05-20T06:41:16;5.10;;;4.20;;
25509;SDS011;13413;52.336;21.200;2023-05-20T06:44:10;5.70;;;4.30;;
25509;SDS011;13413;52.336;21.200;2023-05-20T06:47:04;6.60;;;3.90;;
25509;SDS011;13413;52.336;21.200;2023-05-20T06:49:58;8.30;;;4.10;;
25509;SDS011;13413;52.336;21.200;2023-05-20T06:52:51;5.60;;;3.80;;
25509;SDS011;13413;52.336;21.200;2023-05-20T06:55:44;9.10;;;3.50;;
25509;SDS011;13413;52.336;21.200;2023-05-20T06:58:38;10.20;;;3.10;;
25509;SDS011;13413;52.336;21.200;2023-05-20T07:01:32;4.10;;;3.30;;
25509;SDS011;13413;52.336;21.200;2023-05-20T07:04:26;8.50;;;3.90;;
25509;SDS011;13413;52.336;21.200;2023-05-20T07:07:20;7.10;;;3.90;;
25509;SDS011;13413;52.336;21.200;2023-05-20T07:10:14;9.00;;;3.90;;
25509;SDS011;13413;52.336;21.200;2023-05-20T07:13:08;10.30;;;3.50;;
25509;SDS011;13413;52.336;21.200;2023-05-20T07:16:02;10.10;;;3.80;;
25509;SDS011;13413;52.336;21.200;2023-05-20T07:18:57;9.70;;;3.80;;
25509;SDS011;13413;52.336;21.200;2023-05-20T07:21:51;7.30;;;5.70;;
25509;SDS011;13413;52.336;21.200;2023-05-20T07:24:45;5.70;;;3.40;;
25509;SDS011;13413;52.336;21.200;2023-05-20T07:27:40;9.80;;;3.80;;
25509;SDS011;13413;52.336;21.200;2023-05-20T07:30:34;6.20;;;3.50;;
25509;SDS011;13413;52.336;21.200;2023-05-20T07:33:28;5.60;;;3.90;;
25509;SDS011;13413;52.336;21.200;2023-05-20T07:36:22;10.40;;;4.00;;
25509;SDS011;13413;52.336;21.200;2023-05-20T07:39:17;7.80;;;4.20;;
25509;SDS011;13413;52.336;21.200;2023-05-20T07:42:11;14.90;;;5.50;;
25509;SDS011;13413;52.336;21.200;2023-05-20T07:45:07;10.50;;;3.70;;
25509;SDS011;13413;52.336;21.200;2023-05-20T07:48:02;5.10;;;3.50;;
25509;SDS011;13413;52.336;21.200;2023-05-20T07:50:56;5.80;;;4.00;;
25509;SDS011;13413;52.336;21.200;2023-05-20T07:53:50;7.80;;;3.70;;
25509;SDS011;13413;52.336;21.200;2023-05-20T07:56:44;7.40;;;3.70;;
25509;SDS011;13413;52.336;21.200;2023-05-20T07:59:38;6.50;;;3.50;;
25509;SDS011;13413;52.336;21.200;2023-05-20T08:02:32;6.40;;;4.00;;
25509;SDS011;13413;52.336;21.200;2023-05-20T08:05:26;8.60;;;4.30;;
25509;SDS011;13413;52.336;21.200;2023-05-20T08:08:20;8.80;;;4.90;;
25509;SDS011;13413;52.336;21.200;2023-05-20T08:11:14;4.40;;;3.60;;
25509;SDS011;13413;52.336;21.200;2023-05-20T08:14:08;10.60;;;4.40;;
25509;SDS011;13413;52.336;21.200;2023-05-20T08:17:02;5.60;;;4.20;;
25509;SDS011;13413;52.336;21.200;2023-05-20T08:22:49;9.90;;;7.30;;
25509;SDS011;13413;52.336;21.200;2023-05-20T08:25:43;10.80;;;4.50;;
25509;SDS011;13413;52.336;21.200;2023-05-20T08:28:37;6.30;;;4.40;;
25509;SDS011;13413;52.336;21.200;2023-05-20T08:31:31;7.70;;;5.10;;
25509;SDS011;13413;52.336;21.200;2023-05-20T08:43:40;5.50;;;4.50;;
25509;SDS011;13413;52.336;21.200;2023-05-20T08:46:34;10.00;;;4.60;;
25509;SDS011;13413;52.336;21.200;2023-05-20T08:49:29;5.50;;;4.40;;
25509;SDS011;13413;52.336;21.200;2023-05-20T08:52:24;12.30;;;5.70;;
25509;SDS011;13413;52.336;21.200;2023-05-20T08:55:23;7.60;;;5.30;;
25509;SDS011;13413;52.336;21.200;2023-05-20T08:58:22;7.70;;;4.70;;
25509;SDS011;13413;52.336;21.200;2023-05-20T09:01:16;9.30;;;4.60;;
25509;SDS011;13413;52.336;21.200;2023-05-20T09:04:14;6.80;;;5.20;;
25509;SDS011;13413;52.336;21.200;2023-05-20T09:07:08;7.50;;;4.50;;
25509;SDS011;13413;52.336;21.200;2023-05-20T09:10:04;5.20;;;4.40;;
25509;SDS011;13413;52.336;21.200;2023-05-20T09:13:00;11.40;;;5.20;;
25509;SDS011;13413;52.336;21.200;2023-05-20T09:15:56;9.70;;;5.20;;
25509;SDS011;13413;52.336;21.200;2023-05-20T09:18:55;8.20;;;4.80;;
25509;SDS011;13413;52.336;21.200;2023-05-20T09:21:52;7.40;;;5.00;;
25509;SDS011;13413;52.336;21.200;2023-05-20T09:24:46;8.40;;;5.20;;
25509;SDS011;13413;52.336;21.200;2023-05-20T09:27:40;9.00;;;5.10;;
25509;SDS011;13413;52.336;21.200;2023-05-20T09:30:34;7.10;;;5.00;;
25509;SDS011;13413;52.336;21.200;2023-05-20T09:33:29;9.80;;;5.20;;
25509;SDS011;13413;52.336;21.200;2023-05-20T09:39:21;6.80;;;4.90;;
25509;SDS011;13413;52.336;21.200;2023-05-20T09:42:22;8.40;;;5.10;;
25509;SDS011;13413;52.336;21.200;2023-05-20T09:45:17;4.90;;;4.40;;
25509;SDS011;13413;52.336;21.200;2023-05-20T09:48:11;6.40;;;4.90;;
25509;SDS011;13413;52.336;21.200;2023-05-20T09:51:06;9.80;;;5.50;;
25509;SDS011;13413;52.336;21.200;2023-05-20T09:54:01;8.60;;;5.50;;
25509;SDS011;13413;52.336;21.200;2023-05-20T10:00:04;8.00;;;5.90;;
25509;SDS011;13413;52.336;21.200;2023-05-20T10:02:59;8.70;;;5.80;;
25509;SDS011;13413;52.336;21.200;2023-05-20T10:06:10;8.00;;;5.90;;
25509;SDS011;13413;52.336;21.200;2023-05-20T10:09:21;7.70;;;5.90;;
25509;SDS011;13413;52.336;21.200;2023-05-20T10:12:25;8.10;;;6.10;;
25509;SDS011;13413;52.336;21.200;2023-05-20T10:15:26;9.90;;;5.70;;
25509;SDS011;13413;52.336;21.200;2023-05-20T10:18:28;6.20;;;5.70;;
25509;SDS011;13413;52.336;21.200;2023-05-20T10:21:32;10.40;;;6.00;;
25509;SDS011;13413;52.336;21.200;2023-05-20T10:24:30;8.40;;;5.70;;
25509;SDS011;13413;52.336;21.200;2023-05-20T10:27:25;8.30;;;5.90;;
25509;SDS011;13413;52.336;21.200;2023-05-20T10:30:20;9.60;;;5.90;;
25509;SDS011;13413;52.336;21.200;2023-05-20T10:33:16;7.10;;;5.80;;
25509;SDS011;13413;52.336;21.200;2023-05-20T10:36:10;9.10;;;5.70;;
25509;SDS011;13413;52.336;21.200;2023-05-20T10:42:09;13.40;;;5.80;;
25509;SDS011;13413;52.336;21.200;2023-05-20T10:48:00;9.60;;;6.60;;
25509;SDS011;13413;52.336;21.200;2023-05-20T10:50:54;7.70;;;5.50;;
25509;SDS011;13413;52.336;21.200;2023-05-20T10:59:29;8.00;;;5.40;;
25509;SDS011;13413;52.336;21.200;2023-05-20T11:02:23;8.50;;;5.70;;
25509;SDS011;13413;52.336;21.200;2023-05-20T11:05:18;10.60;;;5.70;;
25509;SDS011;13413;52.336;21.200;2023-05-20T11:08:12;9.40;;;5.30;;
25509;SDS011;13413;52.336;21.200;2023-05-20T11:11:07;13.60;;;6.10;;
25509;SDS011;13413;52.336;21.200;2023-05-20T11:14:15;11.40;;;6.20;;
25509;SDS011;13413;52.336;21.200;2023-05-20T11:20:05;8.10;;;5.70;;
25509;SDS011;13413;52.336;21.200;2023-05-20T11:23:01;11.00;;;5.80;;
25509;SDS011;13413;52.336;21.200;2023-05-20T11:25:57;13.40;;;6.10;;
25509;SDS011;13413;52.336;21.200;2023-05-20T11:31:44;7.10;;;4.70;;
25509;SDS011;13413;52.336;21.200;2023-05-20T11:34:39;5.80;;;5.20;;
25509;SDS011;13413;52.336;21.200;2023-05-20T11:37:32;7.00;;;5.40;;
25509;SDS011;13413;52.336;21.200;2023-05-20T11:40:29;5.90;;;5.00;;
25509;SDS011;13413;52.336;21.200;2023-05-20T11:43:24;6.80;;;5.30;;
25509;SDS011;13413;52.336;21.200;2023-05-20T11:46:18;13.10;;;5.30;;
25509;SDS011;13413;52.336;21.200;2023-05-20T11:49:13;6.30;;;4.90;;
25509;SDS011;13413;52.336;21.200;2023-05-20T11:52:08;5.60;;;5.00;;
25509;SDS011;13413;52.336;21.200;2023-05-20T11:55:03;5.50;;;4.80;;
25509;SDS011;13413;52.336;21.200;2023-05-20T11:58:01;6.90;;;5.20;;
25509;SDS011;13413;52.336;21.200;2023-05-20T12:00:56;7.40;;;5.00;;
25509;SDS011;13413;52.336;21.200;2023-05-20T12:03:50;6.90;;;4.60;;
25509;SDS011;13413;52.336;21.200;2023-05-20T12:06:44;8.20;;;5.10;;
25509;SDS011;13413;52.336;21.200;2023-05-20T12:09:38;9.30;;;5.60;;
25509;SDS011;13413;52.336;21.200;2023-05-20T12:12:32;8.70;;;5.20;;
25509;SDS011;13413;52.336;21.200;2023-05-20T12:21:15;5.90;;;4.80;;
25509;SDS011;13413;52.336;21.200;2023-05-20T12:24:09;7.00;;;5.00;;
25509;SDS011;13413;52.336;21.200;2023-05-20T12:27:03;7.30;;;5.00;;
25509;SDS011;13413;52.336;21.200;2023-05-20T12:29:58;7.90;;;4.80;;
25509;SDS011;13413;52.336;21.200;2023-05-20T12:32:52;13.60;;;5.40;;
25509;SDS011;13413;52.336;21.200;2023-05-20T12:35:46;6.80;;;5.40;;
25509;SDS011;13413;52.336;21.200;2023-05-20T12:38:40;7.50;;;4.80;;
25509;SDS011;13413;52.336;21.200;2023-05-20T12:41:34;14.10;;;5.20;;
25509;SDS011;13413;52.336;21.200;2023-05-20T12:44:29;7.20;;;5.00;;
25509;SDS011;13413;52.336;21.200;2023-05-20T12:47:23;10.70;;;5.30;;
25509;SDS011;13413;52.336;21.200;2023-05-20T12:50:17;6.20;;;4.90;;
25509;SDS011;13413;52.336;21.200;2023-05-20T12:53:11;8.10;;;5.30;;
25509;SDS011;13413;52.336;21.200;2023-05-20T12:56:06;12.70;;;6.20;;
25509;SDS011;13413;52.336;21.200;2023-05-20T13:01:52;7.50;;;5.30;;
25509;SDS011;13413;52.336;21.200;2023-05-20T13:04:46;6.30;;;5.20;;
25509;SDS011;13413;52.336;21.200;2023-05-20T13:07:40;7.40;;;5.50;;
25509;SDS011;13413;52.336;21.200;2023-05-20T13:19:27;7.00;;;4.90;;
25509;SDS011;13413;52.336;21.200;2023-05-20T13:22:22;11.20;;;5.50;;
25509;SDS011;13413;52.336;21.200;2023-05-20T13:25:16;7.50;;;5.70;;
25509;SDS011;13413;52.336;21.200;2023-05-20T13:28:10;7.50;;;5.00;;
25509;SDS011;13413;52.336;21.200;2023-05-20T13:31:05;7.50;;;5.80;;
25509;SDS011;13413;52.336;21.200;2023-05-20T13:33:59;15.20;;;5.80;;
25509;SDS011;13413;52.336;21.200;2023-05-20T13:36:53;8.80;;;5.40;;
25509;SDS011;13413;52.336;21.200;2023-05-20T13:39:47;9.10;;;4.70;;
25509;SDS011;13413;52.336;21.200;2023-05-20T13:42:41;5.70;;;5.20;;
25509;SDS011;13413;52.336;21.200;2023-05-20T13:45:38;5.90;;;4.70;;
25509;SDS011;13413;52.336;21.200;2023-05-20T13:48:33;6.40;;;5.50;;
25509;SDS011;13413;52.336;21.200;2023-05-20T13:51:40;13.50;;;5.80;;
25509;SDS011;13413;52.336;21.200;2023-05-20T13:54:34;10.50;;;6.00;;
25509;SDS011;13413;52.336;21.200;2023-05-20T13:57:28;12.60;;;6.60;;
25509;SDS011;13413;52.336;21.200;2023-05-20T14:00:22;8.60;;;5.20;;
25509;SDS011;13413;52.336;21.200;2023-05-20T14:03:16;9.20;;;5.90;;
25509;SDS011;13413;52.336;21.200;2023-05-20T14:06:10;11.90;;;5.60;;
25509;SDS011;13413;52.336;21.200;2023-05-20T14:09:04;6.50;;;5.30;;
25509;SDS011;13413;52.336;21.200;2023-05-20T14:11:59;11.50;;;7.80;;
25509;SDS011;13413;52.336;21.200;2023-05-20T14:14:53;9.30;;;6.20;;
25509;SDS011;13413;52.336;21.200;2023-05-20T14:17:47;8.60;;;6.20;;
25509;SDS011;13413;52.336;21.200;2023-05-20T14:20:41;9.80;;;6.00;;
25509;SDS011;13413;52.336;21.200;2023-05-20T14:23:35;12.50;;;6.90;;
25509;SDS011;13413;52.336;21.200;2023-05-20T14:26:31;7.80;;;6.40;;
25509;SDS011;13413;52.336;21.200;2023-05-20T14:29:25;6.20;;;5.60;;
25509;SDS011;13413;52.336;21.200;2023-05-20T14:32:19;7.80;;;5.80;;
25509;SDS011;13413;52.336;21.200;2023-05-20T14:35:14;8.40;;;6.50;;
25509;SDS011;13413;52.336;21.200;2023-05-20T14:41:00;6.20;;;5.60;;
25509;SDS011;13413;52.336;21.200;2023-05-20T14:43:54;6.80;;;5.50;;
25509;SDS011;13413;52.336;21.200;2023-05-20T14:46:48;8.00;;;5.80;;
25509;SDS011;13413;52.336;21.200;2023-05-20T14:49:42;6.50;;;5.90;;
25509;SDS011;13413;52.336;21.200;2023-05-20T14:52:37;13.40;;;5.80;;
25509;SDS011;13413;52.336;21.200;2023-05-20T14:55:32;7.30;;;5.90;;
25509;SDS011;13413;52.336;21.200;2023-05-20T14:58:26;9.10;;;5.80;;
25509;SDS011;13413;52.336;21.200;2023-05-20T15:01:20;8.10;;;5.50;;
25509;SDS011;13413;52.336;21.200;2023-05-20T15:04:14;9.40;;;6.00;;
25509;SDS011;13413;52.336;21.200;2023-05-20T15:07:08;5.90;;;5.00;;
25509;SDS011;13413;52.336;21.200;2023-05-20T15:10:03;9.30;;;6.30;;
25509;SDS011;13413;52.336;21.200;2023-05-20T15:12:58;5.60;;;4.90;;
25509;SDS011;13413;52.336;21.200;2023-05-20T15:15:52;6.30;;;5.40;;
25509;SDS011;13413;52.336;21.200;2023-05-20T15:18:47;7.00;;;4.80;;
25509;SDS011;13413;52.336;21.200;2023-05-20T15:21:40;9.30;;;5.20;;
25509;SDS011;13413;52.336;21.200;2023-05-20T15:24:34;10.40;;;5.90;;
25509;SDS011;13413;52.336;21.200;2023-05-20T15:27:28;6.40;;;5.50;;
25509;SDS011;13413;52.336;21.200;2023-05-20T15:30:23;11.10;;;4.20;;
25509;SDS011;13413;52.336;21.200;2023-05-20T15:38:49;11.10;;;5.30;;
25509;SDS011;13413;52.336;21.200;2023-05-20T15:41:44;8.60;;;5.40;;
25509;SDS011;13413;52.336;21.200;2023-05-20T15:44:37;5.90;;;4.60;;
25509;SDS011;13413;52.336;21.200;2023-05-20T15:47:31;9.10;;;5.50;;
25509;SDS011;13413;52.336;21.200;2023-05-20T15:50:26;5.90;;;5.30;;
25509;SDS011;13413;52.336;21.200;2023-05-20T15:53:19;8.10;;;5.30;;
25509;SDS011;13413;52.336;21.200;2023-05-20T15:56:13;10.80;;;5.90;;
25509;SDS011;13413;52.336;21.200;2023-05-20T15:59:07;9.10;;;5.80;;
25509;SDS011;13413;52.336;21.200;2023-05-20T16:02:02;5.80;;;5.10;;
25509;SDS011;13413;52.336;21.200;2023-05-20T16:04:55;7.00;;;5.30;;
25509;SDS011;13413;52.336;21.200;2023-05-20T16:07:56;7.40;;;4.90;;
25509;SDS011;13413;52.336;21.200;2023-05-20T16:10:52;7.90;;;5.20;;
25509;SDS011;13413;52.336;21.200;2023-05-20T16:13:46;9.20;;;5.00;;
25509;SDS011;13413;52.336;21.200;2023-05-20T16:16:41;10.50;;;5.50;;
25509;SDS011;13413;52.336;21.200;2023-05-20T16:19:34;5.70;;;5.10;;
25509;SDS011;13413;52.336;21.200;2023-05-20T16:22:28;7.90;;;4.70;;
25509;SDS011;13413;52.336;21.200;2023-05-20T16:25:23;9.80;;;5.80;;
25509;SDS011;13413;52.336;21.200;2023-05-20T16:28:17;6.10;;;5.30;;
25509;SDS011;13413;52.336;21.200;2023-05-20T16:31:11;9.10;;;4.80;;
25509;SDS011;13413;52.336;21.200;2023-05-20T16:34:05;10.80;;;5.40;;
25509;SDS011;13413;52.336;21.200;2023-05-20T16:36:59;6.70;;;4.90;;
25509;SDS011;13413;52.336;21.200;2023-05-20T16:39:55;12.60;;;4.90;;
25509;SDS011;13413;52.336;21.200;2023-05-20T16:42:50;11.00;;;5.30;;
25509;SDS011;13413;52.336;21.200;2023-05-20T16:45:43;8.40;;;5.10;;
25509;SDS011;13413;52.336;21.200;2023-05-20T16:48:38;11.40;;;4.50;;
25509;SDS011;13413;52.336;21.200;2023-05-20T16:51:32;10.20;;;5.60;;
25509;SDS011;13413;52.336;21.200;2023-05-20T16:54:25;6.20;;;4.60;;
25509;SDS011;13413;52.336;21.200;2023-05-20T16:57:20;6.60;;;4.40;;
25509;SDS011;13413;52.336;21.200;2023-05-20T17:00:15;12.60;;;5.60;;
25509;SDS011;13413;52.336;21.200;2023-05-20T17:03:10;7.60;;;4.90;;
25509;SDS011;13413;52.336;21.200;2023-05-20T17:06:04;7.40;;;6.00;;
25509;SDS011;13413;52.336;21.200;2023-05-20T17:08:57;7.40;;;5.80;;
25509;SDS011;13413;52.336;21.200;2023-05-20T17:11:52;6.50;;;5.30;;
25509;SDS011;13413;52.336;21.200;2023-05-20T17:14:46;9.80;;;5.10;;
25509;SDS011;13413;52.336;21.200;2023-05-20T17:17:40;10.90;;;5.20;;
25509;SDS011;13413;52.336;21.200;2023-05-20T17:20:34;10.70;;;6.30;;
25509;SDS011;13413;52.336;21.200;2023-05-20T17:23:28;7.30;;;5.20;;
25509;SDS011;13413;52.336;21.200;2023-05-20T17:26:21;7.50;;;5.60;;
25509;SDS011;13413;52.336;21.200;2023-05-20T17:29:16;6.90;;;6.00;;
25509;SDS011;13413;52.336;21.200;2023-05-20T17:35:17;10.90;;;6.80;;
25509;SDS011;13413;52.336;21.200;2023-05-20T17:38:11;14.50;;;7.00;;
25509;SDS011;13413;52.336;21.200;2023-05-20T17:41:24;6.70;;;6.10;;
25509;SDS011;13413;52.336;21.200;2023-05-20T17:44:18;8.30;;;5.50;;
25509;SDS011;13413;52.336;21.200;2023-05-20T17:47:13;8.20;;;6.10;;
25509;SDS011;13413;52.336;21.200;2023-05-20T17:53:23;8.00;;;6.00;;
25509;SDS011;13413;52.336;21.200;2023-05-20T17:56:17;8.50;;;5.70;;
25509;SDS011;13413;52.336;21.200;2023-05-20T17:59:11;8.70;;;6.30;;
25509;SDS011;13413;52.336;21.200;2023-05-20T18:04:58;10.60;;;7.10;;
25509;SDS011;13413;52.336;21.200;2023-05-20T18:07:52;8.80;;;6.90;;
25509;SDS011;13413;52.336;21.200;2023-05-20T18:10:47;10.50;;;8.20;;
25509;SDS011;13413;52.336;21.200;2023-05-20T18:13:41;15.70;;;10.80;;
25509;SDS011;13413;52.336;21.200;2023-05-20T18:16:36;12.50;;;10.20;;
25509;SDS011;13413;52.336;21.200;2023-05-20T18:19:32;13.90;;;10.00;;
25509;SDS011;13413;52.336;21.200;2023-05-20T18:22:26;12.60;;;10.50;;
25509;SDS011;13413;52.336;21.200;2023-05-20T18:25:22;15.40;;;9.80;;
25509;SDS011;13413;52.336;21.200;2023-05-20T18:28:17;15.80;;;9.00;;
25509;SDS011;13413;52.336;21.200;2023-05-20T18:31:10;13.80;;;9.10;;
25509;SDS011;13413;52.336;21.200;2023-05-20T18:34:05;15.10;;;9.50;;
25509;SDS011;13413;52.336;21.200;2023-05-20T18:37:00;19.10;;;9.30;;
25509;SDS011;13413;52.336;21.200;2023-05-20T18:39:54;35.70;;;17.70;;
25509;SDS011;13413;52.336;21.200;2023-05-20T18:42:48;41.60;;;21.10;;
25509;SDS011;13413;52.336;21.200;2023-05-20T18:45:42;19.90;;;10.80;;
25509;SDS011;13413;52.336;21.200;2023-05-20T18:48:35;13.20;;;8.70;;
25509;SDS011;13413;52.336;21.200;2023-05-20T18:51:30;11.00;;;9.20;;
25509;SDS011;13413;52.336;21.200;2023-05-20T18:54:24;13.20;;;9.20;;
25509;SDS011;13413;52.336;21.200;2023-05-20T18:57:31;15.40;;;9.60;;
25509;SDS011;13413;52.336;21.200;2023-05-20T19:00:24;15.10;;;8.80;;
25509;SDS011;13413;52.336;21.200;2023-05-20T19:03:21;20.90;;;10.10;;